Time;durP1;ratioP1;P1;durP2;ratioP2;P2;SDS_P1;SDS_P2;PMS_P1;PMS_P2;Temp;Humidity;BMP_temperature;BMP_pressure;BME280_temperature;BME280_humidity;BME280_pressure;Samples;Min_cycle;Max_cycle;Signal;HPM_P1;HPM_P2
2022/06/19 00:00:08;;;;;;;10.50;5.37;;;19.50;72.80;;;;;;5074491;28;20432;-66
2022/06/19 00:02:37;;;;;;;8.23;4.80;;;19.50;73.00;;;;;;5073038;28;20463;-66
2022/06/19 00:05:24;;;;;;;11.20;4.33;;;19.50;72.90;;;;;;5074441;28;20488;-66
2022/06/19 00:07:51;;;;;;;11.50;4.80;;;19.60;73.20;;;;;;5054524;28;20437;-66
2022/06/19 00:10:18;;;;;;;9.53;5.47;;;19.60;73.90;;;;;;5054228;28;20468;-65
2022/06/19 00:12:45;;;;;;;7.97;4.37;;;19.60;73.50;;;;;;5073373;28;20644;-65
2022/06/19 00:15:12;;;;;;;9.60;4.80;;;19.50;73.60;;;;;;5073882;28;20929;-65
2022/06/19 00:17:40;;;;;;;13.10;4.83;;;19.40;73.30;;;;;;5073314;28;20562;-65
2022/06/19 00:20:10;;;;;;;16.40;5.97;;;19.20;73.80;;;;;;5073327;28;20511;-65
2022/06/19 00:22:38;;;;;;;9.57;5.20;;;19.20;74.10;;;;;;5073838;28;20486;-66
2022/06/19 00:25:07;;;;;;;10.83;6.33;;;19.20;74.70;;;;;;5073883;28;20447;-65
2022/06/19 00:27:37;;;;;;;13.90;6.17;;;19.10;75.50;;;;;;5073229;28;20448;-67
2022/06/19 00:30:06;;;;;;;14.03;4.90;;;19.00;75.40;;;;;;5074128;28;20795;-65
2022/06/19 00:32:33;;;;;;;9.70;5.17;;;19.00;75.40;;;;;;5073378;28;20850;-65
2022/06/19 00:35:00;;;;;;;10.93;5.63;;;19.00;75.50;;;;;;5073715;28;20478;-66
2022/06/19 00:37:29;;;;;;;10.20;4.63;;;18.90;76.20;;;;;;5073286;28;20522;-65
2022/06/19 00:39:56;;;;;;;9.43;4.37;;;18.90;76.60;;;;;;5073684;28;20442;-65
2022/06/19 00:42:24;;;;;;;12.57;4.30;;;18.80;76.90;;;;;;5073209;28;21007;-65
2022/06/19 00:44:52;;;;;;;14.43;4.80;;;18.80;76.90;;;;;;5073514;28;20946;-65
2022/06/19 00:47:21;;;;;;;10.37;5.00;;;18.60;76.50;;;;;;5072988;28;20479;-65
2022/06/19 00:49:51;;;;;;;11.27;4.87;;;18.60;76.80;;;;;;5073601;28;20475;-65
2022/06/19 00:52:21;;;;;;;13.53;5.30;;;18.50;76.70;;;;;;5073122;28;20439;-65
2022/06/19 00:54:55;;;;;;;9.40;4.40;;;18.50;77.40;;;;;;5073267;28;20474;-65
2022/06/19 00:57:23;;;;;;;12.23;5.23;;;18.40;76.60;;;;;;5072659;28;20476;-65
2022/06/19 00:59:55;;;;;;;9.37;4.77;;;18.40;77.00;;;;;;5073228;28;20585;-65
2022/06/19 01:02:23;;;;;;;8.20;4.10;;;18.30;77.40;;;;;;5072962;28;20436;-65
2022/06/19 01:04:52;;;;;;;11.30;5.63;;;18.30;78.40;;;;;;5073068;28;20816;-65
2022/06/19 01:07:22;;;;;;;9.77;5.40;;;18.40;79.00;;;;;;5072488;28;20489;-65
2022/06/19 01:09:52;;;;;;;9.77;4.70;;;18.40;79.40;;;;;;5072602;28;20440;-65
2022/06/19 01:12:20;;;;;;;14.60;6.17;;;18.40;80.70;;;;;;5065816;28;20440;-65
2022/06/19 01:14:53;;;;;;;11.17;5.70;;;18.30;81.60;;;;;;5073009;28;20436;-65
2022/06/19 01:17:21;;;;;;;10.73;5.60;;;18.30;82.10;;;;;;5052854;28;20469;-65
2022/06/19 01:19:48;;;;;;;11.67;5.23;;;18.30;82.50;;;;;;5062395;28;20443;-66
2022/06/19 01:22:26;;;;;;;12.73;5.10;;;18.30;82.20;;;;;;5072542;28;20519;-65
2022/06/19 01:25:06;;;;;;;11.73;4.73;;;18.20;82.20;;;;;;5072806;28;20501;-65
2022/06/19 01:30:22;;;;;;;12.10;4.43;;;18.10;82.10;;;;;;5052698;28;20420;-65
2022/06/19 01:32:51;;;;;;;10.70;5.60;;;18.10;82.60;;;;;;5068161;28;20519;-69
2022/06/19 01:35:22;;;;;;;12.47;5.57;;;18.00;82.80;;;;;;5072665;28;20489;-65
2022/06/19 01:37:50;;;;;;;10.67;5.20;;;18.00;83.20;;;;;;5072231;28;20533;-65
2022/06/19 01:40:23;;;;;;;8.90;5.37;;;18.00;83.50;;;;;;5072679;28;20961;-65
2022/06/19 01:42:50;;;;;;;10.47;5.03;;;17.90;83.50;;;;;;5072226;28;20839;-65
2022/06/19 01:45:18;;;;;;;10.77;5.40;;;18.00;83.40;;;;;;5072522;28;20493;-65
2022/06/19 01:47:46;;;;;;;8.70;4.90;;;18.00;83.20;;;;;;5072149;28;20954;-65
2022/06/19 01:50:19;;;;;;;10.20;4.80;;;18.00;82.90;;;;;;5072619;28;20578;-65
2022/06/19 01:52:49;;;;;;;9.33;4.37;;;17.90;83.50;;;;;;5072156;28;20440;-65
2022/06/19 01:55:20;;;;;;;10.87;5.30;;;17.80;84.00;;;;;;5072364;28;20497;-65
2022/06/19 01:57:50;;;;;;;16.77;5.20;;;17.80;84.20;;;;;;5071696;28;20525;-65
2022/06/19 02:00:21;;;;;;;12.67;5.37;;;17.80;84.20;;;;;;5072228;28;20432;-65
2022/06/19 02:02:54;;;;;;;8.57;5.20;;;17.80;84.60;;;;;;5072347;28;20436;-65
2022/06/19 02:05:22;;;;;;;8.83;4.93;;;17.80;83.90;;;;;;5071990;28;20448;-65
2022/06/19 02:07:49;;;;;;;10.80;4.07;;;17.80;84.10;;;;;;5072441;28;20444;-65
2022/06/19 02:10:16;;;;;;;7.37;4.30;;;17.70;84.50;;;;;;5071883;28;20481;-65
2022/06/19 02:12:45;;;;;;;9.13;4.40;;;17.70;84.90;;;;;;5071950;28;20474;-65
2022/06/19 02:15:13;;;;;;;9.80;4.63;;;17.70;84.90;;;;;;5071816;28;20930;-65
2022/06/19 02:17:43;;;;;;;9.90;5.00;;;17.70;85.20;;;;;;5071640;28;20558;-65
2022/06/19 02:20:12;;;;;;;13.70;5.63;;;17.70;85.00;;;;;;5071612;28;20978;-66
2022/06/19 02:22:39;;;;;;;12.23;5.57;;;17.70;84.90;;;;;;5072264;28;20447;-66
2022/06/19 02:25:10;;;;;;;15.20;6.00;;;17.70;84.60;;;;;;5071935;28;20445;-65
2022/06/19 02:27:38;;;;;;;8.40;4.93;;;17.70;84.70;;;;;;5072007;28;20520;-65
2022/06/19 02:30:10;;;;;;;9.20;4.10;;;17.60;84.80;;;;;;5071204;28;20439;-65
2022/06/19 02:32:40;;;;;;;11.70;4.50;;;17.50;84.60;;;;;;5072084;28;20498;-67
2022/06/19 02:35:11;;;;;;;9.93;4.40;;;17.50;85.00;;;;;;5071599;28;20953;-68
2022/06/19 02:37:44;;;;;;;13.43;4.93;;;17.50;85.20;;;;;;5072255;28;20443;-65
2022/06/19 02:40:20;;;;;;;9.27;4.70;;;17.50;85.50;;;;;;5071001;28;20447;-65
2022/06/19 02:42:48;;;;;;;10.67;5.20;;;17.40;85.50;;;;;;5072643;28;20432;-65
2022/06/19 02:45:20;;;;;;;10.50;4.30;;;17.30;85.50;;;;;;5075854;28;20475;-66
2022/06/19 02:47:48;;;;;;;13.47;6.17;;;17.30;85.00;;;;;;5075755;28;20428;-66
2022/06/19 02:50:18;;;;;;;15.47;5.00;;;17.20;85.00;;;;;;5075601;28;20428;-66
2022/06/19 02:52:46;;;;;;;12.13;5.30;;;17.10;86.30;;;;;;5075838;28;20447;-65
2022/06/19 02:55:15;;;;;;;14.83;6.00;;;17.10;86.90;;;;;;5075118;28;20463;-65
2022/06/19 02:57:42;;;;;;;8.60;4.80;;;17.10;87.30;;;;;;5075805;28;20443;-65
2022/06/19 03:00:14;;;;;;;14.20;5.13;;;17.10;87.30;;;;;;5075130;28;20976;-65
2022/06/19 03:02:43;;;;;;;12.77;5.07;;;17.20;87.80;;;;;;5075454;28;20436;-65
2022/06/19 03:05:17;;;;;;;7.20;4.70;;;17.20;87.70;;;;;;5074916;28;20508;-65
2022/06/19 03:07:45;;;;;;;11.10;5.70;;;17.20;88.00;;;;;;5075517;28;20435;-65
2022/06/19 03:10:12;;;;;;;10.10;5.13;;;17.30;88.00;;;;;;5074575;28;20432;-65
2022/06/19 03:12:39;;;;;;;10.03;5.00;;;17.30;87.50;;;;;;5075128;28;20859;-65
2022/06/19 03:15:10;;;;;;;12.50;4.93;;;17.30;87.10;;;;;;5075139;28;20930;-65
2022/06/19 03:17:39;;;;;;;9.43;3.40;;;17.30;86.80;;;;;;5074746;28;20444;-65
2022/06/19 03:20:11;;;;;;;13.33;5.17;;;17.30;86.70;;;;;;5075121;28;20529;-65
2022/06/19 03:22:38;;;;;;;11.93;4.70;;;17.40;86.30;;;;;;5075353;28;20463;-65
2022/06/19 03:25:07;;;;;;;14.00;4.90;;;17.30;86.30;;;;;;5074727;28;20444;-66
2022/06/19 03:27:34;;;;;;;13.93;5.37;;;17.30;86.70;;;;;;5075017;28;20478;-65
2022/06/19 03:30:01;;;;;;;8.10;5.40;;;17.20;86.80;;;;;;5074591;28;20501;-65
2022/06/19 03:32:28;;;;;;;11.93;4.70;;;17.20;87.30;;;;;;5074984;28;20493;-65
2022/06/19 03:34:55;;;;;;;9.90;4.60;;;17.10;87.60;;;;;;5074465;28;20494;-65
2022/06/19 03:37:24;;;;;;;9.87;3.90;;;17.00;87.50;;;;;;5075088;28;20811;-65
2022/06/19 03:39:52;;;;;;;14.20;4.53;;;17.00;87.70;;;;;;5074388;28;20479;-65
2022/06/19 03:42:19;;;;;;;12.83;4.50;;;17.10;87.90;;;;;;5054927;28;20477;-65
2022/06/19 03:44:46;;;;;;;14.43;6.00;;;17.10;87.70;;;;;;5057695;28;20436;-65
2022/06/19 03:47:19;;;;;;;7.80;4.70;;;17.10;87.70;;;;;;5074745;28;20783;-65
2022/06/19 03:49:46;;;;;;;11.60;4.50;;;17.10;87.80;;;;;;5074517;28;20436;-66
2022/06/19 03:52:13;;;;;;;10.73;5.10;;;17.20;87.70;;;;;;5074701;28;20567;-65
2022/06/19 03:54:42;;;;;;;10.43;4.73;;;17.20;87.60;;;;;;5072891;28;20483;-65
2022/06/19 03:57:12;;;;;;;7.07;4.33;;;17.30;87.90;;;;;;5074793;28;20440;-65
2022/06/19 03:59:39;;;;;;;9.87;4.20;;;17.40;87.90;;;;;;5074209;28;20515;-65
2022/06/19 04:02:08;;;;;;;11.73;4.40;;;17.40;87.60;;;;;;5074575;28;20447;-66
2022/06/19 04:04:36;;;;;;;12.63;5.00;;;17.50;87.30;;;;;;5074426;28;20440;-68
2022/06/19 04:07:04;;;;;;;9.00;4.37;;;17.50;87.50;;;;;;5074429;28;20440;-65
2022/06/19 04:09:31;;;;;;;8.67;4.83;;;17.50;87.50;;;;;;5074426;28;20449;-65
2022/06/19 04:11:59;;;;;;;14.40;4.53;;;17.60;87.60;;;;;;5074577;28;20530;-65
2022/06/19 04:14:26;;;;;;;13.13;4.93;;;17.70;87.80;;;;;;5074403;28;20444;-65
2022/06/19 04:16:53;;;;;;;11.80;4.53;;;17.80;87.70;;;;;;5073799;28;20440;-65
2022/06/19 04:19:20;;;;;;;9.83;4.43;;;17.80;87.30;;;;;;5073362;28;20497;-65
2022/06/19 04:21:49;;;;;;;11.67;5.20;;;17.90;86.80;;;;;;5074560;28;20442;-65
2022/06/19 04:24:18;;;;;;;10.43;5.30;;;17.90;86.50;;;;;;5073888;28;20835;-65
2022/06/19 04:26:45;;;;;;;14.70;5.57;;;17.90;85.80;;;;;;5074117;28;20432;-65
2022/06/19 04:29:14;;;;;;;10.97;4.90;;;17.90;86.00;;;;;;5073677;28;20514;-65
2022/06/19 04:31:41;;;;;;;7.17;4.50;;;17.90;86.20;;;;;;5074104;28;20500;-66
2022/06/19 04:34:09;;;;;;;7.40;5.47;;;17.90;86.10;;;;;;5073876;28;20831;-66
2022/06/19 04:36:37;;;;;;;17.20;6.00;;;17.90;86.30;;;;;;5073978;28;20848;-65
2022/06/19 04:39:05;;;;;;;9.03;5.17;;;17.90;85.30;;;;;;5073340;28;20478;-65
2022/06/19 04:41:36;;;;;;;18.00;5.60;;;17.90;84.90;;;;;;5073657;28;20532;-67
2022/06/19 04:44:06;;;;;;;16.70;5.40;;;18.00;85.20;;;;;;5073622;28;20424;-66
2022/06/19 04:46:35;;;;;;;11.20;5.47;;;18.00;85.40;;;;;;5073983;28;20847;-66
2022/06/19 04:49:02;;;;;;;12.67;5.87;;;18.10;85.20;;;;;;5073257;28;20454;-65
2022/06/19 04:51:29;;;;;;;9.43;5.47;;;18.20;85.30;;;;;;5073984;28;20451;-65
2022/06/19 04:53:56;;;;;;;14.57;4.50;;;18.30;85.10;;;;;;5072874;28;20472;-67
2022/06/19 04:56:24;;;;;;;9.90;5.00;;;18.40;85.20;;;;;;5073604;28;20439;-65
2022/06/19 04:58:52;;;;;;;8.80;5.17;;;18.40;85.00;;;;;;5073176;28;20490;-65
2022/06/19 05:01:24;;;;;;;13.10;4.93;;;18.50;84.30;;;;;;5073405;28;20468;-65
2022/06/19 05:03:55;;;;;;;8.77;5.20;;;18.60;84.50;;;;;;5072946;28;20436;-65
2022/06/19 05:06:23;;;;;;;9.23;4.70;;;18.70;84.50;;;;;;5072990;28;20436;-65
2022/06/19 05:08:50;;;;;;;17.53;5.30;;;18.80;84.60;;;;;;5072965;28;20448;-65
2022/06/19 05:11:18;;;;;;;16.23;6.93;;;18.90;84.90;;;;;;5073112;28;20502;-65
2022/06/19 05:13:45;;;;;;;14.10;5.27;;;19.10;85.40;;;;;;5072793;28;20515;-65
2022/06/19 05:16:14;;;;;;;16.30;5.90;;;19.10;86.00;;;;;;5073259;28;20475;-65
2022/06/19 05:18:42;;;;;;;15.00;5.90;;;19.20;86.50;;;;;;5072765;28;20880;-65
2022/06/19 05:21:12;;;;;;;16.33;5.27;;;19.40;85.90;;;;;;5072773;28;20475;-66
2022/06/19 05:23:42;;;;;;;9.47;5.13;;;19.50;85.50;;;;;;5072673;28;20436;-65
2022/06/19 05:26:12;;;;;;;10.70;4.60;;;19.60;84.50;;;;;;5072675;28;20436;-65
2022/06/19 05:28:39;;;;;;;9.47;5.80;;;19.70;85.40;;;;;;5072795;28;20507;-66
2022/06/19 05:31:07;;;;;;;8.83;4.43;;;19.80;86.40;;;;;;5072915;28;20436;-65
2022/06/19 05:33:35;;;;;;;10.60;4.80;;;19.90;86.60;;;;;;5072634;28;20511;-66
2022/06/19 05:36:03;;;;;;;10.00;4.60;;;20.00;86.40;;;;;;5072962;28;20926;-66
2022/06/19 05:38:32;;;;;;;12.70;5.10;;;20.10;85.90;;;;;;5072610;28;20444;-65
2022/06/19 05:41:00;;;;;;;9.00;5.03;;;20.10;85.00;;;;;;5073015;28;20486;-65
2022/06/19 05:43:30;;;;;;;12.50;4.70;;;20.30;84.60;;;;;;5072001;28;20498;-66
2022/06/19 05:45:59;;;;;;;11.87;4.93;;;20.40;85.20;;;;;;5072678;28;20487;-65
2022/06/19 05:48:28;;;;;;;13.63;5.17;;;20.40;84.70;;;;;;5072403;28;20918;-66
2022/06/19 05:51:00;;;;;;;9.50;5.80;;;20.60;85.20;;;;;;5072659;28;20501;-66
2022/06/19 05:53:27;;;;;;;12.37;6.40;;;20.60;86.10;;;;;;5071667;28;20809;-65
2022/06/19 05:55:56;;;;;;;13.50;5.17;;;20.80;86.20;;;;;;5072524;28;20440;-66
2022/06/19 05:58:23;;;;;;;20.33;6.07;;;20.90;85.80;;;;;;5072401;28;20519;-66
2022/06/19 06:00:51;;;;;;;11.50;5.53;;;21.00;85.40;;;;;;5072475;28;20480;-66
2022/06/19 06:03:21;;;;;;;10.83;4.93;;;21.10;82.00;;;;;;5071732;28;20439;-66
2022/06/19 06:05:50;;;;;;;18.20;7.77;;;21.20;80.20;;;;;;5072706;28;20489;-66
2022/06/19 06:08:18;;;;;;;13.60;5.87;;;21.30;78.80;;;;;;5072510;28;20440;-66
2022/06/19 06:10:46;;;;;;;12.60;5.67;;;21.40;75.50;;;;;;5072319;28;20935;-66
2022/06/19 06:13:15;;;;;;;18.87;5.53;;;21.50;75.20;;;;;;5067887;28;20471;-66
2022/06/19 06:15:42;;;;;;;16.20;5.17;;;21.60;76.50;;;;;;5071465;28;21001;-66
2022/06/19 06:18:10;;;;;;;15.97;5.50;;;21.70;77.10;;;;;;5072957;28;20448;-66
2022/06/19 06:20:37;;;;;;;10.10;4.20;;;21.90;77.70;;;;;;5075968;28;20533;-66
2022/06/19 06:23:04;;;;;;;7.97;3.77;;;22.00;80.80;;;;;;5075502;28;20470;-67
2022/06/19 06:25:31;;;;;;;13.10;4.80;;;22.20;80.50;;;;;;5075622;28;20478;-66
2022/06/19 06:27:58;;;;;;;12.23;4.63;;;22.30;77.00;;;;;;5075324;28;20463;-66
2022/06/19 06:30:27;;;;;;;16.30;5.07;;;22.40;77.00;;;;;;5076475;28;20448;-66
2022/06/19 06:32:54;;;;;;;7.27;4.43;;;22.60;77.90;;;;;;5075887;28;20501;-66
2022/06/19 06:35:22;;;;;;;12.10;5.20;;;22.70;77.90;;;;;;5076112;28;20439;-66
2022/06/19 06:37:49;;;;;;;9.40;3.90;;;22.90;78.20;;;;;;5076301;28;20443;-66
2022/06/19 06:40:16;;;;;;;15.63;5.00;;;23.10;77.20;;;;;;5075598;28;20475;-66
2022/06/19 06:42:45;;;;;;;11.67;4.00;;;23.30;77.60;;;;;;5076323;28;20495;-66
2022/06/19 06:45:14;;;;;;;11.67;4.47;;;23.40;76.70;;;;;;5075814;28;20442;-66
2022/06/19 06:47:42;;;;;;;13.53;4.60;;;23.60;76.40;;;;;;5075392;28;20438;-66
2022/06/19 06:50:10;;;;;;;10.10;4.30;;;23.80;75.90;;;;;;5075689;28;20927;-66
2022/06/19 06:52:37;;;;;;;14.60;4.83;;;24.00;77.10;;;;;;5075255;28;20433;-66
2022/06/19 06:55:05;;;;;;;11.23;4.80;;;24.20;78.40;;;;;;5075673;28;20445;-66
2022/06/19 06:57:32;;;;;;;13.90;5.13;;;24.40;77.60;;;;;;5075419;28;20497;-67
2022/06/19 07:00:00;;;;;;;13.93;4.90;;;24.50;77.10;;;;;;5075843;28;21056;-66
2022/06/19 07:02:27;;;;;;;12.83;4.80;;;24.70;74.70;;;;;;5075619;28;20922;-66
2022/06/19 07:04:56;;;;;;;9.90;4.20;;;24.90;74.60;;;;;;5075583;28;20438;-66
2022/06/19 07:07:24;;;;;;;13.27;5.10;;;25.10;75.20;;;;;;5075598;28;20443;-66
2022/06/19 07:09:51;;;;;;;13.77;4.77;;;25.20;74.30;;;;;;5075179;28;20496;-66
2022/06/19 07:12:18;;;;;;;8.77;5.00;;;25.40;74.80;;;;;;5075485;28;20439;-66
2022/06/19 07:14:45;;;;;;;10.47;4.70;;;25.60;74.00;;;;;;5075329;28;20509;-66
2022/06/19 07:17:13;;;;;;;11.10;5.10;;;25.70;72.40;;;;;;5075421;28;20519;-66
2022/06/19 07:19:40;;;;;;;13.60;5.03;;;25.90;71.70;;;;;;5075088;28;20483;-67
2022/06/19 07:22:12;;;;;;;14.97;4.67;;;26.10;70.50;;;;;;5075542;28;20472;-66
2022/06/19 07:24:39;;;;;;;12.37;5.07;;;26.20;70.60;;;;;;5074893;28;20444;-67
2022/06/19 07:27:06;;;;;;;11.67;5.20;;;26.40;71.40;;;;;;5075407;28;20468;-66
2022/06/19 07:29:34;;;;;;;9.17;4.43;;;26.60;71.60;;;;;;5074143;28;20459;-66
2022/06/19 07:32:01;;;;;;;21.67;6.37;;;26.70;70.30;;;;;;5075452;28;20494;-66
2022/06/19 07:34:28;;;;;;;18.87;6.00;;;26.90;70.20;;;;;;5074884;28;21000;-66
2022/06/19 07:36:55;;;;;;;17.47;4.87;;;27.10;73.20;;;;;;5076510;28;20424;-66
2022/06/19 07:39:24;;;;;;;9.97;4.63;;;27.30;74.30;;;;;;5083021;28;20480;-66
2022/06/19 07:41:51;;;;;;;14.90;5.00;;;27.50;75.50;;;;;;5079999;28;20486;-66
2022/06/19 07:44:19;;;;;;;15.27;5.30;;;27.60;74.00;;;;;;5085823;28;20439;-66
2022/06/19 07:52:15;;;;;;;12.97;5.20;;;28.10;64.80;;;;;;5083246;28;20435;-66
2022/06/19 07:54:43;;;;;;;15.03;5.40;;;28.20;63.70;;;;;;5084082;28;20439;-67
2022/06/19 07:57:10;;;;;;;9.13;4.00;;;28.30;62.60;;;;;;5083100;28;20536;-67
2022/06/19 07:59:37;;;;;;;10.93;4.67;;;28.40;59.60;;;;;;5084645;28;20510;-66
2022/06/19 08:02:05;;;;;;;11.20;4.50;;;28.60;61.30;;;;;;5079200;28;20443;-68
2022/06/19 08:04:32;;;;;;;16.87;4.70;;;28.70;57.20;;;;;;5085238;28;20489;-66
2022/06/19 08:06:59;;;;;;;10.43;3.87;;;28.90;56.50;;;;;;5082249;28;20527;-66
2022/06/19 08:09:26;;;;;;;15.33;4.97;;;29.00;55.90;;;;;;5084234;28;20444;-66
2022/06/19 08:11:54;;;;;;;11.70;6.10;;;29.00;55.00;;;;;;5072481;28;21006;-66
2022/06/19 08:14:22;;;;;;;21.60;5.60;;;29.20;55.30;;;;;;5074344;28;20433;-66
2022/06/19 08:16:49;;;;;;;21.63;6.13;;;29.30;51.20;;;;;;5074225;28;20444;-66
2022/06/19 08:19:16;;;;;;;19.90;6.00;;;29.40;51.50;;;;;;5079085;28;20518;-68
2022/06/19 08:21:43;;;;;;;18.83;5.50;;;29.60;50.90;;;;;;5076710;28;20444;-67
2022/06/19 08:24:10;;;;;;;15.50;6.00;;;29.80;51.10;;;;;;5078307;28;20543;-66
2022/06/19 08:26:37;;;;;;;12.60;4.67;;;29.90;49.60;;;;;;5078387;28;20512;-66
2022/06/19 08:29:06;;;;;;;14.60;5.43;;;30.00;49.30;;;;;;5079669;28;20563;-68
2022/06/19 08:31:34;;;;;;;9.83;4.20;;;30.20;47.20;;;;;;5078877;28;20430;-66
2022/06/19 08:34:01;;;;;;;10.10;4.47;;;30.30;48.30;;;;;;5076696;28;20462;-66
2022/06/19 08:36:30;;;;;;;15.63;4.70;;;30.40;48.10;;;;;;5077065;28;20953;-67
2022/06/19 08:39:03;;;;;;;20.40;5.10;;;30.60;50.40;;;;;;5078562;28;20455;-67
2022/06/19 08:41:45;;;;;;;10.33;4.17;;;30.70;50.30;;;;;;5074042;28;20487;-66
2022/06/19 08:44:55;;;;;;;15.00;4.37;;;30.90;48.50;;;;;;5075887;28;20464;-66
2022/06/19 08:47:41;;;;;;;18.33;5.60;;;31.10;49.40;;;;;;5074688;28;20440;-66
2022/06/19 08:50:20;;;;;;;9.70;4.50;;;31.20;46.50;;;;;;5077356;28;20518;-67
2022/06/19 08:53:00;;;;;;;18.90;4.77;;;31.40;46.90;;;;;;5074873;28;20478;-67
2022/06/19 08:55:35;;;;;;;22.40;5.50;;;31.50;47.00;;;;;;5075034;28;20934;-66
2022/06/19 08:58:11;;;;;;;21.43;5.40;;;31.60;45.70;;;;;;5069271;28;20454;-67
2022/06/19 09:00:49;;;;;;;17.03;6.13;;;31.70;45.30;;;;;;5070159;28;20514;-73
2022/06/19 09:03:27;;;;;;;16.73;4.37;;;31.90;45.40;;;;;;5068134;28;20436;-66
2022/06/19 09:05:59;;;;;;;14.20;5.67;;;31.90;44.20;;;;;;5070958;28;20447;-67
2022/06/19 09:08:52;;;;;;;20.90;5.17;;;32.00;43.10;;;;;;5071323;28;20513;-66
2022/06/19 09:11:38;;;;;;;11.90;4.77;;;32.10;43.00;;;;;;5071055;28;20444;-67
2022/06/19 09:14:22;;;;;;;17.03;5.23;;;32.30;45.40;;;;;;5071293;28;20841;-68
2022/06/19 09:17:01;;;;;;;19.20;5.83;;;32.40;45.30;;;;;;5070923;28;20527;-66
2022/06/19 09:19:39;;;;;;;11.97;5.43;;;32.60;47.10;;;;;;5068360;28;20556;-67
2022/06/19 09:22:16;;;;;;;17.20;4.70;;;32.80;45.30;;;;;;5070350;28;20438;-67
2022/06/19 09:25:08;;;;;;;16.07;6.23;;;32.90;45.30;;;;;;5071140;28;20493;-66
2022/06/19 09:27:53;;;;;;;21.17;6.17;;;33.10;45.00;;;;;;5070584;28;20474;-67
2022/06/19 09:30:27;;;;;;;15.63;4.90;;;33.20;40.70;;;;;;5067451;28;20433;-67
2022/06/19 09:32:59;;;;;;;17.87;5.00;;;33.20;41.30;;;;;;5071135;28;20537;-66
2022/06/19 09:35:32;;;;;;;18.07;5.50;;;33.30;40.50;;;;;;5067045;28;20498;-67
2022/06/19 09:38:05;;;;;;;7.70;4.27;;;33.30;38.70;;;;;;5070912;28;20467;-67
2022/06/19 09:40:35;;;;;;;33.73;6.10;;;33.40;40.50;;;;;;5070455;28;20573;-67
2022/06/19 09:43:09;;;;;;;16.93;6.90;;;33.60;40.30;;;;;;5070574;28;20489;-67
2022/06/19 09:45:42;;;;;;;16.60;6.30;;;33.70;40.60;;;;;;5069697;28;20432;-67
2022/06/19 09:48:22;;;;;;;14.90;5.90;;;33.80;40.80;;;;;;5069793;28;20862;-67
2022/06/19 09:50:53;;;;;;;20.37;6.50;;;33.90;41.40;;;;;;5070338;28;20460;-67
2022/06/19 09:53:26;;;;;;;11.43;5.03;;;34.10;41.10;;;;;;5070513;28;20441;-67
2022/06/19 09:56:00;;;;;;;14.70;4.80;;;34.10;39.00;;;;;;5070301;28;20442;-66
2022/06/19 09:58:35;;;;;;;17.93;5.43;;;34.20;38.10;;;;;;5071119;28;20443;-67
2022/06/19 10:01:05;;;;;;;17.03;5.73;;;34.20;36.60;;;;;;5070337;28;20475;-67
2022/06/19 10:03:48;;;;;;;14.17;6.00;;;34.30;38.30;;;;;;5070543;28;20482;-69
2022/06/19 10:06:21;;;;;;;14.83;5.30;;;34.30;38.90;;;;;;5070394;28;20522;-66
2022/06/19 10:08:54;;;;;;;15.20;6.30;;;34.30;35.30;;;;;;5070764;28;20887;-67
2022/06/19 10:11:24;;;;;;;14.00;5.40;;;34.30;34.80;;;;;;5071259;28;20960;-67
2022/06/19 10:13:56;;;;;;;14.53;5.50;;;34.30;36.90;;;;;;5070381;28;20459;-68
2022/06/19 10:16:28;;;;;;;12.83;5.53;;;34.30;35.90;;;;;;5070737;28;20436;-67
2022/06/19 10:18:59;;;;;;;26.57;6.10;;;34.40;35.30;;;;;;5070729;28;20440;-67
2022/06/19 10:24:29;;;;;;;9.80;5.60;;;34.60;36.40;;;;;;5069961;28;20427;-68
2022/06/19 10:27:04;;;;;;;14.57;5.47;;;34.60;34.20;;;;;;5070387;28;20949;-68
2022/06/19 10:29:47;;;;;;;15.30;5.87;;;34.60;34.90;;;;;;5069174;28;20459;-66
2022/06/19 10:32:26;;;;;;;18.40;5.63;;;34.60;34.40;;;;;;5069072;28;20854;-66
2022/06/19 10:35:12;;;;;;;12.77;6.03;;;34.70;34.80;;;;;;5067068;28;20867;-67
2022/06/19 10:37:55;;;;;;;12.73;5.50;;;34.70;33.70;;;;;;5066488;28;20949;-68
2022/06/19 10:40:32;;;;;;;15.13;5.90;;;34.70;32.60;;;;;;5070043;28;20472;-67
2022/06/19 10:43:10;;;;;;;13.40;6.57;;;34.70;34.80;;;;;;5068195;28;20844;-66
2022/06/19 10:45:43;;;;;;;18.70;5.93;;;34.70;33.80;;;;;;5069613;28;20443;-67
2022/06/19 10:48:27;;;;;;;15.97;5.53;;;34.80;36.20;;;;;;5067508;28;20539;-67
2022/06/19 10:51:08;;;;;;;12.10;5.83;;;34.80;36.40;;;;;;5073906;28;20455;-66
2022/06/19 10:53:51;;;;;;;17.10;6.13;;;34.80;33.80;;;;;;5076662;28;20521;-66
2022/06/19 10:56:28;;;;;;;13.67;6.43;;;34.90;33.80;;;;;;5072919;28;20497;-67
2022/06/19 10:58:56;;;;;;;13.10;6.77;;;34.90;32.70;;;;;;5075769;28;20486;-67
2022/06/19 11:04:18;;;;;;;16.77;6.20;;;35.20;35.80;;;;;;5071796;28;20424;-66
2022/06/19 11:06:50;;;;;;;16.73;5.20;;;35.20;34.30;;;;;;5079571;28;20443;-66
2022/06/19 11:09:23;;;;;;;12.30;6.00;;;35.30;33.50;;;;;;5070437;28;20444;-69
2022/06/19 11:11:55;;;;;;;16.03;6.23;;;35.40;35.00;;;;;;5065924;28;20450;-66
2022/06/19 11:14:36;;;;;;;15.77;5.43;;;35.50;32.60;;;;;;5073242;28;20447;-69
2022/06/19 11:17:06;;;;;;;13.37;7.10;;;35.50;32.90;;;;;;5075893;28;20517;-66
2022/06/19 11:19:41;;;;;;;12.90;5.40;;;35.60;30.50;;;;;;5073798;28;20464;-68
2022/06/19 11:22:38;;;;;;;14.57;6.23;;;35.60;30.90;;;;;;5067217;28;20479;-66
2022/06/19 11:25:36;;;;;;;13.50;5.87;;;35.60;32.80;;;;;;5073080;28;20521;-66
2022/06/19 11:28:11;;;;;;;12.63;5.83;;;35.70;31.90;;;;;;5076756;28;20474;-66
2022/06/19 11:30:41;;;;;;;17.60;5.23;;;35.70;35.00;;;;;;5077630;28;20438;-66
2022/06/19 11:33:12;;;;;;;17.87;6.60;;;35.70;30.40;;;;;;5075178;28;20447;-67
2022/06/19 11:35:49;;;;;;;12.80;6.07;;;35.70;30.00;;;;;;5075996;28;20448;-67
2022/06/19 11:38:32;;;;;;;17.43;7.00;;;35.70;30.40;;;;;;5074310;28;20440;-66
2022/06/19 11:40:59;;;;;;;20.77;6.57;;;35.70;32.10;;;;;;5074459;28;21361;-67
2022/06/19 11:43:30;;;;;;;12.10;5.60;;;35.70;32.40;;;;;;5077165;28;20944;-66
2022/06/19 11:46:07;;;;;;;14.67;6.60;;;35.80;32.20;;;;;;5072858;28;20825;-66
2022/06/19 11:48:35;;;;;;;15.63;5.83;;;35.90;32.70;;;;;;5068802;28;20435;-66
2022/06/19 11:51:03;;;;;;;20.00;5.93;;;36.00;32.50;;;;;;5071605;28;20432;-66
2022/06/19 11:53:35;;;;;;;23.60;6.87;;;36.00;32.70;;;;;;5073139;28;20436;-66
2022/06/19 11:56:26;;;;;;;11.87;5.80;;;35.90;31.50;;;;;;5068392;28;20436;-66
2022/06/19 11:58:56;;;;;;;10.83;5.27;;;35.90;31.30;;;;;;5071653;28;20450;-66
2022/06/19 12:01:34;;;;;;;16.67;6.53;;;35.80;29.40;;;;;;5074609;28;20479;-66
2022/06/19 12:04:05;;;;;;;18.80;6.03;;;35.80;30.10;;;;;;5074438;28;20518;-68
2022/06/19 12:06:42;;;;;;;12.33;6.20;;;35.70;30.70;;;;;;5074804;28;20794;-66
2022/06/19 12:09:26;;;;;;;11.70;5.43;;;35.80;31.10;;;;;;5074690;28;20926;-67
2022/06/19 12:12:01;;;;;;;13.43;5.73;;;35.80;30.30;;;;;;5075007;28;20436;-66
2022/06/19 12:14:30;;;;;;;14.00;5.50;;;35.80;30.00;;;;;;5074990;28;20989;-66
2022/06/19 12:17:15;;;;;;;17.33;6.80;;;35.90;29.90;;;;;;5073595;28;20435;-66
2022/06/19 12:19:52;;;;;;;12.30;5.83;;;35.90;28.40;;;;;;5074986;28;20452;-66
2022/06/19 12:22:23;;;;;;;17.10;6.60;;;35.90;30.20;;;;;;5074696;28;20479;-66
2022/06/19 12:24:58;;;;;;;15.00;6.67;;;35.90;28.90;;;;;;5074992;28;20531;-66
2022/06/19 12:27:30;;;;;;;15.27;5.90;;;36.00;28.50;;;;;;5074754;28;20436;-66
2022/06/19 12:30:02;;;;;;;11.87;6.10;;;35.90;28.40;;;;;;5074776;28;20432;-66
2022/06/19 12:32:33;;;;;;;12.53;5.43;;;36.00;29.00;;;;;;5074349;28;20438;-66
2022/06/19 12:35:06;;;;;;;19.77;6.40;;;36.00;29.00;;;;;;5074636;28;20436;-66
2022/06/19 12:37:33;;;;;;;12.87;6.47;;;36.00;30.00;;;;;;5074750;28;20463;-66
2022/06/19 12:40:05;;;;;;;20.57;6.00;;;36.00;27.80;;;;;;5074567;28;20490;-66
2022/06/19 12:42:46;;;;;;;15.30;6.07;;;35.90;28.90;;;;;;5074531;28;20537;-66
2022/06/19 12:45:25;;;;;;;15.40;6.37;;;35.90;29.40;;;;;;5074466;28;20490;-67
2022/06/19 12:47:58;;;;;;;11.80;5.70;;;35.90;29.90;;;;;;5074283;28;20550;-66
2022/06/19 12:50:47;;;;;;;15.80;6.33;;;35.90;29.20;;;;;;5074241;28;20519;-66
2022/06/19 12:53:37;;;;;;;22.87;6.00;;;35.80;30.30;;;;;;5073921;28;20846;-66
2022/06/19 12:56:16;;;;;;;20.97;6.33;;;35.80;29.40;;;;;;5074209;28;20476;-67
2022/06/19 12:59:06;;;;;;;14.70;5.40;;;35.70;29.20;;;;;;5074160;28;20484;-67
2022/06/19 13:01:43;;;;;;;18.00;6.20;;;35.70;29.30;;;;;;5074016;28;20571;-67
2022/06/19 13:04:24;;;;;;;10.27;6.50;;;35.70;31.40;;;;;;5074049;28;20485;-66
2022/06/19 13:07:04;;;;;;;13.07;6.10;;;35.70;32.20;;;;;;5073847;28;20462;-66
2022/06/19 13:09:59;;;;;;;14.97;6.43;;;35.70;29.80;;;;;;5073587;28;20803;-67
2022/06/19 13:12:42;;;;;;;17.23;5.93;;;35.60;29.90;;;;;;5073952;28;20493;-66